createdAt,value
2023-09-28T00:14:37.287Z,14.80
2023-09-28T00:29:40.516Z,14.50
2023-09-28T01:01:23.433Z,15.73
2023-09-28T01:16:26.834Z,15.27
2023-09-28T01:31:30.028Z,16.20
2023-09-28T01:46:33.169Z,17.10
2023-09-28T02:01:39.844Z,15.37
2023-09-28T02:16:44.567Z,22.40
2023-09-28T02:31:50.663Z,20.57
2023-09-28T02:46:56.557Z,21.17
2023-09-28T03:01:59.840Z,22.23
2023-09-28T03:17:03.612Z,19.90
2023-09-28T03:32:09.341Z,22.80
2023-09-28T03:47:16.408Z,16.30
2023-09-28T04:02:22.658Z,23.73
2023-09-28T04:17:28.375Z,24.13
2023-09-28T04:32:35.132Z,25.93
2023-09-28T04:47:44.536Z,23.07
2023-09-28T05:02:52.663Z,26.73
2023-09-28T05:17:56.247Z,19.00
2023-09-28T05:32:59.930Z,29.07
2023-09-28T05:48:12.705Z,21.90
2023-09-28T06:03:19.816Z,25.40
2023-09-28T06:18:28.566Z,22.57
2023-09-28T06:33:32.462Z,17.60
2023-09-28T06:48:36.483Z,23.37
2023-09-28T07:03:41.133Z,20.43
2023-09-28T07:18:44.361Z,20.37
2023-09-28T07:33:47.722Z,21.13
2023-09-28T07:48:55.722Z,20.03
2023-09-28T08:03:59.085Z,14.33
2023-09-28T08:19:03.917Z,15.40
2023-09-28T08:34:22.152Z,16.57
2023-09-28T08:49:32.974Z,19.83
2023-09-28T09:04:36.232Z,17.57
2023-09-28T09:19:49.638Z,18.57
2023-09-28T09:34:56.143Z,19.33
2023-09-28T09:50:01.110Z,16.17
2023-09-28T10:05:05.932Z,17.67
2023-09-28T10:20:10.478Z,13.83
2023-09-28T10:35:24.591Z,12.77
2023-09-28T10:50:30.982Z,12.80
2023-09-28T11:05:35.886Z,5.60
2023-09-28T11:20:40.806Z,10.30
2023-09-28T11:35:43.944Z,5.60
2023-09-28T11:50:50.371Z,7.93
2023-09-28T12:06:01.455Z,11.00
2023-09-28T12:21:23.722Z,9.30
2023-09-28T12:36:28.146Z,8.73
2023-09-28T12:52:24.797Z,8.00
2023-09-28T13:07:28.396Z,5.70
2023-09-28T13:22:31.833Z,9.70
2023-09-28T13:37:35.516Z,7.90
2023-09-28T13:52:38.961Z,9.03
2023-09-28T14:07:43.458Z,8.97
2023-09-28T14:22:51.860Z,7.87
2023-09-28T14:38:01.469Z,10.63
2023-09-28T14:53:08.635Z,9.43
2023-09-28T15:08:13.873Z,6.40
2023-09-28T15:23:18.560Z,5.27
2023-09-28T15:38:23.489Z,6.90
2023-09-28T15:53:39.375Z,11.33
2023-09-28T16:08:52.097Z,7.40
2023-09-28T16:23:57.586Z,9.23
2023-09-28T16:39:08.354Z,6.07
2023-09-28T16:54:11.864Z,6.47
2023-09-28T17:09:21.577Z,8.90
2023-09-28T17:24:30.443Z,13.53
2023-09-28T17:39:39.280Z,8.73
2023-09-28T17:54:45.374Z,7.93
2023-09-28T18:09:50.749Z,6.87
2023-09-28T18:24:54.761Z,10.30
2023-09-28T18:40:01.350Z,14.63
2023-09-28T18:55:05.556Z,7.57
2023-09-28T19:10:10.072Z,13.73
2023-09-28T19:25:16.298Z,8.37
2023-09-28T19:40:19.747Z,7.70
2023-09-28T19:55:22.916Z,12.33
2023-09-28T20:10:26.587Z,11.40
2023-09-28T20:25:29.915Z,10.10
2023-09-28T20:40:39.046Z,8.90
2023-09-28T20:55:42.337Z,9.57
2023-09-28T21:10:50.520Z,12.50
2023-09-28T21:25:53.871Z,10.97
2023-09-28T21:40:57.094Z,14.13
2023-09-28T21:56:01.598Z,11.83
2023-09-28T22:11:06.573Z,18.27
2023-09-28T22:26:10.441Z,8.13
2023-09-28T22:41:16.132Z,11.13
2023-09-28T22:56:20.339Z,9.50
2023-09-28T23:11:24.631Z,10.27
2023-09-28T23:26:28.555Z,8.93
2023-09-28T23:41:43.586Z,17.20
2023-09-28T23:56:47.310Z,11.20
